createdAt,value
2023-04-19T00:01:08.777Z,16.53
2023-04-19T00:03:35.574Z,16.43
2023-04-19T00:06:02.640Z,16.93
2023-04-19T00:08:29.140Z,17.10
2023-04-19T00:10:58.124Z,14.73
2023-04-19T00:13:24.591Z,13.43
2023-04-19T00:15:51.106Z,14.67
2023-04-19T00:18:20.281Z,16.27
2023-04-19T00:20:46.804Z,17.40
2023-04-19T00:23:13.339Z,17.33
2023-04-19T00:25:39.914Z,14.73
2023-04-19T00:28:06.553Z,13.87
2023-04-19T00:30:33.134Z,14.27
2023-04-19T00:32:59.681Z,15.57
2023-04-19T00:35:26.213Z,15.93
2023-04-19T00:37:52.776Z,16.13
2023-04-19T00:40:19.413Z,15.40
2023-04-19T00:42:45.915Z,15.00
2023-04-19T00:45:12.492Z,16.80
2023-04-19T00:47:39.213Z,16.53
2023-04-19T00:50:06.174Z,14.73
2023-04-19T00:52:33.091Z,16.03
2023-04-19T00:54:59.976Z,19.60
2023-04-19T00:57:26.576Z,15.67
2023-04-19T00:59:54.532Z,17.23
2023-04-19T01:02:22.237Z,14.70
2023-04-19T01:04:48.914Z,18.00
2023-04-19T01:07:15.451Z,14.63
2023-04-19T01:09:43.821Z,16.00
2023-04-19T01:12:10.408Z,13.53
2023-04-19T01:14:36.861Z,16.27
2023-04-19T01:17:03.340Z,16.90
2023-04-19T01:19:30.168Z,14.73
2023-04-19T01:21:58.432Z,16.70
2023-04-19T01:24:25.652Z,15.37
2023-04-19T01:26:52.263Z,14.93
2023-04-19T01:29:22.266Z,13.53
2023-04-19T01:31:53.879Z,14.73
2023-04-19T01:34:20.675Z,13.20
2023-04-19T01:36:47.200Z,14.97
2023-04-19T01:39:13.767Z,16.63
2023-04-19T01:41:40.325Z,14.90
2023-04-19T01:44:06.856Z,17.33
2023-04-19T01:46:33.464Z,15.33
2023-04-19T01:49:00.100Z,13.10
2023-04-19T01:51:26.616Z,15.63
2023-04-19T01:53:54.854Z,15.33
2023-04-19T01:56:24.747Z,14.83
2023-04-19T01:58:51.261Z,16.23
2023-04-19T02:01:17.832Z,13.80
2023-04-19T02:03:44.781Z,15.70
2023-04-19T02:06:14.183Z,16.33
2023-04-19T02:08:41.789Z,13.20
2023-04-19T02:11:09.031Z,13.83
2023-04-19T02:13:35.555Z,21.93
2023-04-19T02:16:06.203Z,14.87
2023-04-19T02:18:32.911Z,18.47
2023-04-19T02:20:59.651Z,14.07
2023-04-19T02:23:26.364Z,13.67
2023-04-19T02:25:53.619Z,16.53
2023-04-19T02:28:20.189Z,16.77
2023-04-19T02:30:46.882Z,13.67
2023-04-19T02:33:13.535Z,15.13
2023-04-19T02:35:40.114Z,16.27
2023-04-19T02:38:06.614Z,13.10
2023-04-19T02:40:33.231Z,14.70
2023-04-19T02:42:59.717Z,14.67
2023-04-19T02:45:26.654Z,15.87
2023-04-19T02:47:53.216Z,13.27
2023-04-19T02:50:19.759Z,13.53
2023-04-19T02:52:46.248Z,13.20
2023-04-19T02:55:12.733Z,14.00
2023-04-19T02:57:39.347Z,15.03
2023-04-19T03:00:06.617Z,14.00
2023-04-19T03:02:33.248Z,12.67
2023-04-19T03:04:59.778Z,11.43
2023-04-19T03:07:26.722Z,11.53
2023-04-19T03:09:53.261Z,13.97
2023-04-19T03:12:19.757Z,9.83
2023-04-19T03:14:46.275Z,13.13
2023-04-19T03:17:12.940Z,12.67
2023-04-19T03:19:39.416Z,10.47
2023-04-19T03:22:05.926Z,13.40
2023-04-19T03:24:34.375Z,10.33
2023-04-19T03:27:02.884Z,9.07
2023-04-19T03:29:29.361Z,10.93
2023-04-19T03:31:56.464Z,11.30
2023-04-19T03:34:22.927Z,10.67
2023-04-19T03:36:49.730Z,11.23
2023-04-19T03:39:16.241Z,11.23
2023-04-19T03:41:42.743Z,10.13
2023-04-19T03:44:09.279Z,9.93
2023-04-19T03:46:36.111Z,8.80
2023-04-19T03:49:02.717Z,10.43
2023-04-19T03:51:29.259Z,9.27
2023-04-19T03:53:55.726Z,7.87
2023-04-19T03:56:22.218Z,9.83
2023-04-19T03:58:51.379Z,9.93
2023-04-19T04:01:21.629Z,9.00
2023-04-19T04:03:50.825Z,10.30
2023-04-19T04:06:17.596Z,7.33
2023-04-19T04:08:44.137Z,9.00
2023-04-19T04:11:10.725Z,9.67
2023-04-19T04:13:39.450Z,7.23
2023-04-19T04:16:06.180Z,9.73
2023-04-19T04:18:32.652Z,8.60
2023-04-19T04:20:59.177Z,7.97
2023-04-19T04:23:28.552Z,10.23
2023-04-19T04:26:01.017Z,9.33
2023-04-19T04:28:28.255Z,7.33
2023-04-19T04:31:00.500Z,7.00
2023-04-19T04:33:28.128Z,8.73
2023-04-19T04:35:55.387Z,5.43
2023-04-19T04:38:24.940Z,6.97
2023-04-19T04:40:55.286Z,8.60
2023-04-19T04:43:23.011Z,7.73
2023-04-19T04:45:49.605Z,6.77
2023-04-19T04:48:16.373Z,6.30
2023-04-19T04:50:42.910Z,8.87
2023-04-19T04:53:12.320Z,6.70
2023-04-19T04:55:39.444Z,5.43
2023-04-19T04:58:05.980Z,6.83
2023-04-19T05:00:32.981Z,7.13
2023-04-19T05:03:00.226Z,5.90
2023-04-19T05:05:26.896Z,8.10
2023-04-19T05:07:53.870Z,6.40
2023-04-19T05:10:22.962Z,7.50
2023-04-19T05:12:49.465Z,5.73
2023-04-19T05:15:16.002Z,6.17
2023-04-19T05:17:43.337Z,6.60
2023-04-19T05:20:10.061Z,4.90
2023-04-19T05:22:37.045Z,7.50
2023-04-19T05:25:06.341Z,5.63
2023-04-19T05:27:32.874Z,5.93
2023-04-19T05:29:59.409Z,7.53
2023-04-19T05:32:26.729Z,10.60
2023-04-19T05:34:53.582Z,6.30
2023-04-19T05:37:20.077Z,9.07
2023-04-19T05:39:46.621Z,6.60
2023-04-19T05:42:13.083Z,14.37
2023-04-19T05:44:39.587Z,7.83
2023-04-19T05:47:06.075Z,8.80
2023-04-19T05:49:32.545Z,5.97
2023-04-19T05:51:59.062Z,8.93
2023-04-19T05:54:25.624Z,7.50
2023-04-19T05:56:52.520Z,11.63
2023-04-19T05:59:19.123Z,8.23
2023-04-19T06:01:46.097Z,10.10
2023-04-19T06:04:15.687Z,7.60
2023-04-19T06:06:42.727Z,8.87
2023-04-19T06:09:09.290Z,7.47
2023-04-19T06:11:47.138Z,6.97
2023-04-19T06:14:17.392Z,8.40
2023-04-19T06:16:44.234Z,7.77
2023-04-19T06:19:11.064Z,8.57
2023-04-19T06:21:37.637Z,9.30
2023-04-19T06:24:04.481Z,8.57
2023-04-19T06:26:31.226Z,8.40
2023-04-19T06:28:57.720Z,13.93
2023-04-19T06:31:24.395Z,10.37
2023-04-19T06:33:51.179Z,9.93
2023-04-19T06:36:17.669Z,8.40
2023-04-19T06:38:47.375Z,7.13
2023-04-19T06:41:13.878Z,11.00
2023-04-19T06:43:41.029Z,8.07
2023-04-19T06:46:10.113Z,6.67
2023-04-19T06:48:36.766Z,5.57
2023-04-19T06:51:03.366Z,15.33
2023-04-19T06:53:29.950Z,12.30
2023-04-19T06:55:59.120Z,11.43
2023-04-19T06:58:25.776Z,11.10
2023-04-19T07:00:52.380Z,11.40
2023-04-19T07:03:19.464Z,11.93
2023-04-19T07:05:46.478Z,7.23
2023-04-19T07:08:13.005Z,7.37
2023-04-19T07:10:39.665Z,10.17
2023-04-19T07:13:06.147Z,11.80
2023-04-19T07:15:32.624Z,13.73
2023-04-19T07:17:59.159Z,6.47
2023-04-19T07:20:25.927Z,5.57
2023-04-19T07:22:52.817Z,13.73
2023-04-19T07:25:19.308Z,8.07
2023-04-19T07:27:46.325Z,7.37
2023-04-19T07:30:13.536Z,5.73
2023-04-19T07:32:40.322Z,5.53
2023-04-19T07:35:07.313Z,8.37
2023-04-19T07:37:33.873Z,6.70
2023-04-19T07:40:01.025Z,6.33
2023-04-19T07:42:29.924Z,9.73
2023-04-19T07:44:56.719Z,6.87
2023-04-19T07:47:23.183Z,7.37
2023-04-19T07:49:53.437Z,10.03
2023-04-19T07:52:19.970Z,6.27
2023-04-19T07:54:47.290Z,11.30
2023-04-19T07:57:13.759Z,8.10
2023-04-19T07:59:40.367Z,6.40
2023-04-19T08:02:07.791Z,6.73
2023-04-19T08:04:34.798Z,6.83
2023-04-19T08:07:01.462Z,6.47
2023-04-19T08:09:28.019Z,6.60
2023-04-19T08:11:54.551Z,8.30
2023-04-19T08:14:34.918Z,7.77
2023-04-19T08:17:23.806Z,6.87
2023-04-19T08:19:53.441Z,5.97
2023-04-19T08:22:20.608Z,5.20
2023-04-19T08:24:49.642Z,8.17
2023-04-19T08:27:16.170Z,5.00
2023-04-19T08:29:42.799Z,6.10
2023-04-19T08:32:11.810Z,4.77
2023-04-19T08:34:39.304Z,6.17
2023-04-19T08:37:07.385Z,5.07
2023-04-19T08:39:34.758Z,5.00
2023-04-19T08:42:11.130Z,7.30
2023-04-19T08:45:09.306Z,4.93
2023-04-19T08:47:51.872Z,7.47
2023-04-19T08:50:32.041Z,7.23
2023-04-19T08:55:33.269Z,6.77
2023-04-19T08:57:59.786Z,7.50
2023-04-19T09:00:26.372Z,12.67
2023-04-19T09:02:54.686Z,7.50
2023-04-19T09:05:21.696Z,6.93
2023-04-19T09:07:48.609Z,9.27
2023-04-19T09:10:16.366Z,11.17
2023-04-19T09:12:43.383Z,6.33
2023-04-19T09:15:10.324Z,8.63
2023-04-19T09:17:37.410Z,5.43
2023-04-19T09:20:05.036Z,8.20
2023-04-19T09:22:31.882Z,6.07
2023-04-19T09:27:32.425Z,5.80
2023-04-19T09:30:00.648Z,6.80
2023-04-19T09:32:27.867Z,5.03
2023-04-19T09:34:55.472Z,4.73
2023-04-19T09:37:41.523Z,3.37
2023-04-19T09:40:22.259Z,4.53
2023-04-19T09:45:29.040Z,4.50
2023-04-19T09:48:04.028Z,3.27
2023-04-19T09:50:31.734Z,4.00
2023-04-19T09:52:59.726Z,4.07
2023-04-19T09:55:29.022Z,4.27
2023-04-19T09:57:56.916Z,8.13
2023-04-19T10:00:23.550Z,4.20
2023-04-19T10:02:58.513Z,3.83
2023-04-19T10:05:26.754Z,4.70
2023-04-19T10:07:59.544Z,3.60
2023-04-19T10:10:41.334Z,3.13
2023-04-19T10:13:18.956Z,3.57
2023-04-19T10:15:52.412Z,5.30
2023-04-19T10:18:22.177Z,5.00
2023-04-19T10:21:06.794Z,6.43
2023-04-19T10:23:33.612Z,4.47
2023-04-19T10:26:00.185Z,5.93
2023-04-19T10:28:31.014Z,3.80
2023-04-19T10:31:01.906Z,3.53
2023-04-19T10:33:29.816Z,5.07
2023-04-19T10:35:57.753Z,4.40
2023-04-19T10:38:36.820Z,5.13
2023-04-19T10:41:04.424Z,6.10
2023-04-19T10:43:34.834Z,4.47
2023-04-19T10:46:02.348Z,5.90
2023-04-19T10:48:33.644Z,5.43
2023-04-19T10:51:00.111Z,11.77
2023-04-19T10:53:46.363Z,4.73
2023-04-19T10:56:13.048Z,5.27
2023-04-19T10:58:58.234Z,3.33
2023-04-19T11:01:43.686Z,10.60
2023-04-19T11:04:11.606Z,5.23
2023-04-19T11:06:53.783Z,9.37
2023-04-19T11:09:23.635Z,3.40
2023-04-19T11:11:50.402Z,4.47
2023-04-19T11:14:20.638Z,4.77
2023-04-19T11:16:47.295Z,4.80
2023-04-19T11:19:17.700Z,7.13
2023-04-19T11:21:48.105Z,5.73
2023-04-19T11:24:24.024Z,7.73
2023-04-19T11:26:51.308Z,5.30
2023-04-19T11:29:20.075Z,6.23
2023-04-19T11:31:46.969Z,5.07
2023-04-19T11:34:13.814Z,5.67
2023-04-19T11:36:50.636Z,5.17
2023-04-19T11:39:17.262Z,32.70
2023-04-19T11:41:43.880Z,5.47
2023-04-19T11:44:14.447Z,11.07
2023-04-19T11:46:41.499Z,5.37
2023-04-19T11:49:08.151Z,4.80
2023-04-19T11:51:34.683Z,10.40
2023-04-19T11:54:01.167Z,4.53
2023-04-19T11:56:28.461Z,5.87
2023-04-19T11:58:57.434Z,4.70
2023-04-19T12:01:25.910Z,6.87
2023-04-19T12:03:53.793Z,3.83
2023-04-19T12:06:28.462Z,2.97
2023-04-19T12:08:55.950Z,3.67
2023-04-19T12:11:26.925Z,6.37
2023-04-19T12:14:12.922Z,9.43
2023-04-19T12:16:39.571Z,7.27
2023-04-19T12:19:16.361Z,6.17
2023-04-19T12:21:43.512Z,6.20
2023-04-19T12:24:10.474Z,10.97
2023-04-19T12:26:37.013Z,6.30
2023-04-19T12:29:03.937Z,5.77
2023-04-19T12:31:32.352Z,5.17
2023-04-19T12:33:58.945Z,5.23
2023-04-19T12:36:25.493Z,3.87
2023-04-19T12:38:52.027Z,6.27
2023-04-19T12:41:19.522Z,6.37
2023-04-19T12:43:46.090Z,5.70
2023-04-19T12:46:15.132Z,5.57
2023-04-19T12:48:41.629Z,7.50
2023-04-19T12:51:09.122Z,9.90
2023-04-19T12:53:35.874Z,6.67
2023-04-19T12:56:02.410Z,5.77
2023-04-19T12:58:28.946Z,6.53
2023-04-19T13:00:55.482Z,7.23
2023-04-19T13:03:22.286Z,3.73
2023-04-19T13:05:49.306Z,3.90
2023-04-19T13:08:15.982Z,3.20
2023-04-19T13:10:42.466Z,5.73
2023-04-19T13:13:08.985Z,4.13
2023-04-19T13:15:35.561Z,4.17
2023-04-19T13:18:02.078Z,6.83
2023-04-19T13:20:29.548Z,7.07
2023-04-19T13:22:56.070Z,5.70
2023-04-19T13:25:22.676Z,6.60
2023-04-19T13:27:49.155Z,6.87
2023-04-19T13:30:16.061Z,4.00
2023-04-19T13:32:42.851Z,5.80
2023-04-19T13:35:09.517Z,3.93
2023-04-19T13:37:35.990Z,4.17
2023-04-19T13:40:17.351Z,5.60
2023-04-19T13:42:44.987Z,3.53
2023-04-19T13:45:11.686Z,7.17
2023-04-19T13:47:38.224Z,5.50
2023-04-19T13:50:04.908Z,3.50
2023-04-19T13:52:31.461Z,6.03
2023-04-19T13:54:57.917Z,8.13
2023-04-19T13:57:24.429Z,5.40
2023-04-19T13:59:50.917Z,7.17
2023-04-19T14:02:17.608Z,4.43
2023-04-19T14:04:44.274Z,5.27
2023-04-19T14:07:10.993Z,6.83
2023-04-19T14:09:37.487Z,7.80
2023-04-19T14:12:04.676Z,5.83
2023-04-19T14:14:32.433Z,6.10
2023-04-19T14:16:59.096Z,6.67
2023-04-19T14:19:25.684Z,6.13
2023-04-19T14:21:52.233Z,5.53
2023-04-19T14:24:21.663Z,3.83
2023-04-19T14:26:56.841Z,3.20
2023-04-19T14:29:33.644Z,12.60
2023-04-19T14:32:13.439Z,11.03
2023-04-19T14:34:49.343Z,6.27
2023-04-19T14:37:16.071Z,3.57
2023-04-19T14:39:42.556Z,10.53
2023-04-19T14:42:09.068Z,6.87
2023-04-19T14:44:35.995Z,4.73
2023-04-19T14:47:05.083Z,2.77
2023-04-19T14:49:31.608Z,3.67
2023-04-19T14:51:58.159Z,4.77
2023-04-19T14:54:25.062Z,3.90
2023-04-19T14:56:52.836Z,3.03
2023-04-19T14:59:19.317Z,3.37
2023-04-19T15:01:45.878Z,4.63
2023-04-19T15:04:12.591Z,6.50
2023-04-19T15:06:41.132Z,5.90
2023-04-19T15:09:07.730Z,6.13
2023-04-19T15:11:34.647Z,5.20
2023-04-19T15:14:01.188Z,5.40
2023-04-19T15:16:27.880Z,3.03
2023-04-19T15:18:54.550Z,3.87
2023-04-19T15:21:24.174Z,3.03
2023-04-19T15:23:51.221Z,5.50
2023-04-19T15:26:17.711Z,3.13
2023-04-19T15:28:44.411Z,2.80
2023-04-19T15:31:11.056Z,5.10
2023-04-19T15:33:38.060Z,3.20
2023-04-19T15:36:04.735Z,5.47
2023-04-19T15:38:31.638Z,8.33
2023-04-19T15:40:58.946Z,6.63
2023-04-19T15:43:25.776Z,5.30
2023-04-19T15:45:52.390Z,4.47
2023-04-19T15:48:20.580Z,5.30
2023-04-19T15:50:47.249Z,6.20
2023-04-19T15:53:13.955Z,3.50
2023-04-19T15:55:41.601Z,3.47
2023-04-19T15:58:08.355Z,3.00
2023-04-19T16:00:34.913Z,5.80
2023-04-19T16:03:01.717Z,4.73
2023-04-19T16:05:28.599Z,3.83
2023-04-19T16:08:01.974Z,2.77
2023-04-19T16:10:31.060Z,3.87
2023-04-19T16:12:57.878Z,3.83
2023-04-19T16:15:24.700Z,2.67
2023-04-19T16:17:52.030Z,4.77
2023-04-19T16:20:19.374Z,3.97
2023-04-19T16:22:45.901Z,4.53
2023-04-19T16:25:14.222Z,5.30
2023-04-19T16:27:41.427Z,3.57
2023-04-19T16:30:08.300Z,2.00
2023-04-19T16:32:37.428Z,2.83
2023-04-19T16:35:05.466Z,3.30
2023-04-19T16:37:32.574Z,4.30
2023-04-19T16:39:59.756Z,5.43
2023-04-19T16:42:26.255Z,4.37
2023-04-19T16:44:52.796Z,5.90
2023-04-19T16:47:19.301Z,5.07
2023-04-19T16:49:47.953Z,5.07
2023-04-19T16:52:14.435Z,3.47
2023-04-19T16:54:40.925Z,4.73
2023-04-19T16:57:07.518Z,2.90
2023-04-19T16:59:34.005Z,2.63
2023-04-19T17:02:02.445Z,3.90
2023-04-19T17:04:29.565Z,3.13
2023-04-19T17:06:56.334Z,2.93
2023-04-19T17:09:25.916Z,4.20
2023-04-19T17:11:52.418Z,9.77
2023-04-19T17:14:19.030Z,4.90
2023-04-19T17:16:45.565Z,4.07
2023-04-19T17:19:12.109Z,4.00
2023-04-19T17:21:38.589Z,3.07
2023-04-19T17:24:05.185Z,4.33
2023-04-19T17:26:31.675Z,7.93
2023-04-19T17:28:59.862Z,2.77
2023-04-19T17:31:27.795Z,2.30
2023-04-19T17:33:54.354Z,3.73
2023-04-19T17:36:20.882Z,3.13
2023-04-19T17:38:47.568Z,7.00
2023-04-19T17:41:17.503Z,7.17
2023-04-19T17:43:44.604Z,2.83
2023-04-19T17:46:11.799Z,3.70
2023-04-19T17:48:40.728Z,6.50
2023-04-19T17:51:09.559Z,2.73
2023-04-19T17:53:36.225Z,7.27
2023-04-19T17:56:03.095Z,2.93
2023-04-19T17:58:29.688Z,4.90
2023-04-19T18:00:56.235Z,2.80
2023-04-19T18:03:22.953Z,3.60
2023-04-19T18:05:49.668Z,3.73
2023-04-19T18:08:16.278Z,3.70
2023-04-19T18:10:42.771Z,3.73
2023-04-19T18:13:09.268Z,7.13
2023-04-19T18:15:36.293Z,8.10
2023-04-19T18:18:03.271Z,7.37
2023-04-19T18:20:29.904Z,4.10
2023-04-19T18:22:59.155Z,5.03
2023-04-19T18:25:25.880Z,7.93
2023-04-19T18:27:52.379Z,8.47
2023-04-19T18:30:18.982Z,3.67
2023-04-19T18:32:46.319Z,3.83
2023-04-19T18:35:12.976Z,8.13
2023-04-19T18:37:39.511Z,11.00
2023-04-19T18:40:07.386Z,3.53
2023-04-19T18:42:34.165Z,3.73
2023-04-19T18:45:00.745Z,6.00
2023-04-19T18:47:27.447Z,6.50
2023-04-19T18:50:04.392Z,4.00
2023-04-19T18:52:32.055Z,5.27
2023-04-19T18:54:58.619Z,3.93
2023-04-19T18:57:27.401Z,7.53
2023-04-19T18:59:56.046Z,4.67
2023-04-19T19:02:22.659Z,5.50
2023-04-19T19:04:56.820Z,6.77
2023-04-19T19:07:35.641Z,4.73
2023-04-19T19:10:17.272Z,5.60
2023-04-19T19:12:45.688Z,5.40
2023-04-19T19:15:12.405Z,8.23
2023-04-19T19:17:38.961Z,6.47
2023-04-19T19:20:06.910Z,3.70
2023-04-19T19:22:34.119Z,6.53
2023-04-19T19:25:01.296Z,7.67
2023-04-19T19:27:27.883Z,8.53
2023-04-19T19:29:54.754Z,9.77
2023-04-19T19:32:21.558Z,8.23
2023-04-19T19:37:18.500Z,5.10
2023-04-19T19:39:46.348Z,7.53
2023-04-19T19:42:15.570Z,6.00
2023-04-19T19:44:42.235Z,4.07
2023-04-19T19:47:10.512Z,7.00
2023-04-19T19:49:51.448Z,5.00
2023-04-19T19:52:24.580Z,4.83
2023-04-19T19:54:52.103Z,6.30
2023-04-19T19:58:14.148Z,4.87
2023-04-19T20:02:54.181Z,5.87
2023-04-19T20:05:22.954Z,4.87
2023-04-19T20:10:19.856Z,4.73
2023-04-19T20:12:47.152Z,4.73
2023-04-19T20:15:13.770Z,5.07
2023-04-19T20:17:40.801Z,5.30
2023-04-19T20:20:09.116Z,5.17
2023-04-19T20:22:35.845Z,6.50
2023-04-19T20:25:02.445Z,6.57
2023-04-19T20:27:28.958Z,7.00
2023-04-19T20:29:56.814Z,5.70
2023-04-19T20:32:23.460Z,6.70
2023-04-19T20:34:50.079Z,4.63
2023-04-19T20:37:17.795Z,9.40
2023-04-19T20:39:44.288Z,4.10
2023-04-19T20:42:10.806Z,13.10
2023-04-19T20:44:37.581Z,5.07
2023-04-19T20:47:04.110Z,4.63
2023-04-19T20:49:30.610Z,7.10
2023-04-19T20:51:57.095Z,4.07
2023-04-19T20:54:23.611Z,5.43
2023-04-19T20:56:50.127Z,3.97
2023-04-19T20:59:16.779Z,4.07
2023-04-19T21:01:43.522Z,7.33
2023-04-19T21:04:10.263Z,4.07
2023-04-19T21:06:36.872Z,4.70
2023-04-19T21:09:04.601Z,4.97
2023-04-19T21:11:31.110Z,4.70
2023-04-19T21:13:57.599Z,9.47
2023-04-19T21:16:24.204Z,7.47
2023-04-19T21:18:50.736Z,5.17
2023-04-19T21:21:17.259Z,4.80
2023-04-19T21:23:43.748Z,5.07
2023-04-19T21:26:11.330Z,5.97
2023-04-19T21:28:38.014Z,5.10
2023-04-19T21:31:04.697Z,4.47
2023-04-19T21:33:31.236Z,6.30
2023-04-19T21:35:57.762Z,4.93
2023-04-19T21:38:24.361Z,4.00
2023-04-19T21:40:52.149Z,5.30
2023-04-19T21:43:18.818Z,5.87
2023-04-19T21:45:45.348Z,5.10
2023-04-19T21:48:12.276Z,7.57
2023-04-19T21:50:38.835Z,6.80
2023-04-19T21:53:05.446Z,5.87
2023-04-19T21:55:32.538Z,7.43
2023-04-19T21:57:59.156Z,8.53
2023-04-19T22:00:25.725Z,5.40
2023-04-19T22:02:52.314Z,5.47
2023-04-19T22:05:18.928Z,6.10
2023-04-19T22:07:45.503Z,5.67
2023-04-19T22:10:13.840Z,3.33
2023-04-19T22:12:51.300Z,9.60
2023-04-19T22:15:26.007Z,5.90
2023-04-19T22:17:52.600Z,3.23
2023-04-19T22:20:19.204Z,4.40
2023-04-19T22:22:45.782Z,6.03
2023-04-19T22:25:12.322Z,7.60
2023-04-19T22:27:38.993Z,3.63
2023-04-19T22:30:05.822Z,4.47
2023-04-19T22:32:32.362Z,3.93
2023-04-19T22:34:58.911Z,10.57
2023-04-19T22:37:25.525Z,4.70
2023-04-19T22:39:52.017Z,8.77
2023-04-19T22:42:19.086Z,6.43
2023-04-19T22:44:45.608Z,3.10
2023-04-19T22:47:13.224Z,4.87
2023-04-19T22:49:43.243Z,10.13
2023-04-19T22:52:10.053Z,7.80
2023-04-19T22:54:38.772Z,5.17
2023-04-19T22:57:05.686Z,5.13
2023-04-19T22:59:32.183Z,7.57
2023-04-19T23:01:59.172Z,5.63
2023-04-19T23:04:25.938Z,6.97
2023-04-19T23:06:52.796Z,3.87
2023-04-19T23:09:19.683Z,3.87
2023-04-19T23:11:47.347Z,9.50
2023-04-19T23:14:14.112Z,5.17
2023-04-19T23:16:41.104Z,6.13
2023-04-19T23:19:07.843Z,11.63
2023-04-19T23:21:35.086Z,8.73
2023-04-19T23:24:01.615Z,6.60
2023-04-19T23:26:28.347Z,7.33
2023-04-19T23:28:54.848Z,5.27
2023-04-19T23:31:21.421Z,7.10
2023-04-19T23:33:48.524Z,5.73
2023-04-19T23:36:15.044Z,4.00
2023-04-19T23:38:41.550Z,6.40
2023-04-19T23:41:10.385Z,6.17
2023-04-19T23:43:39.159Z,4.20
2023-04-19T23:46:06.247Z,5.77
2023-04-19T23:48:33.150Z,5.73
2023-04-19T23:50:59.703Z,5.27
2023-04-19T23:53:26.269Z,6.67
2023-04-19T23:55:52.867Z,6.77
2023-04-19T23:58:19.342Z,3.90
